sensor_id;sensor_type;location;lat;lon;timestamp;pressure;altitude;pressure_sealevel;temperature;humidity
15529;BME280;7866;52.280;9.500;2022-09-12T00:04:43;100584.88;;;14.62;92.83
15529;BME280;7866;52.280;9.500;2022-09-12T00:09:45;100577.41;;;14.64;93.28
15529;BME280;7866;52.280;9.500;2022-09-12T00:14:48;100580.75;;;14.66;93.22
15529;BME280;7866;52.280;9.500;2022-09-12T00:19:49;100577.50;;;14.70;93.00
15529;BME280;7866;52.280;9.500;2022-09-12T00:24:51;100578.69;;;14.68;92.73
15529;BME280;7866;52.280;9.500;2022-09-12T00:29:54;100572.03;;;14.64;92.96
15529;BME280;7866;52.280;9.500;2022-09-12T00:34:56;100573.72;;;14.65;93.06
15529;BME280;7866;52.280;9.500;2022-09-12T00:39:58;100560.34;;;14.57;92.79
15529;BME280;7866;52.280;9.500;2022-09-12T00:45:01;100563.69;;;14.59;93.17
15529;BME280;7866;52.280;9.500;2022-09-12T00:50:05;100553.72;;;14.59;93.22
15529;BME280;7866;52.280;9.500;2022-09-12T00:55:10;100553.47;;;14.54;92.80
15529;BME280;7866;52.280;9.500;2022-09-12T01:00:17;100544.94;;;14.50;92.70
15529;BME280;7866;52.280;9.500;2022-09-12T01:05:21;100543.81;;;14.30;92.91
15529;BME280;7866;52.280;9.500;2022-09-12T01:10:23;100549.47;;;14.35;92.87
15529;BME280;7866;52.280;9.500;2022-09-12T01:15:26;100544.84;;;14.29;92.99
15529;BME280;7866;52.280;9.500;2022-09-12T01:20:50;100546.25;;;14.25;93.02
15529;BME280;7866;52.280;9.500;2022-09-12T01:26:06;100540.03;;;14.24;92.98
15529;BME280;7866;52.280;9.500;2022-09-12T01:31:18;100544.13;;;14.20;92.77
15529;BME280;7866;52.280;9.500;2022-09-12T01:36:35;100540.69;;;14.12;92.87
15529;BME280;7866;52.280;9.500;2022-09-12T01:41:47;100536.88;;;14.06;93.18
15529;BME280;7866;52.280;9.500;2022-09-12T01:46:55;100530.66;;;14.05;93.34
15529;BME280;7866;52.280;9.500;2022-09-12T01:52:04;100526.84;;;14.15;93.23
15529;BME280;7866;52.280;9.500;2022-09-12T01:57:12;100526.94;;;14.07;92.85
15529;BME280;7866;52.280;9.500;2022-09-12T02:02:21;100511.25;;;13.95;93.07
15529;BME280;7866;52.280;9.500;2022-09-12T02:07:30;100511.47;;;13.94;93.01
15529;BME280;7866;52.280;9.500;2022-09-12T02:12:38;100515.19;;;13.93;93.09
15529;BME280;7866;52.280;9.500;2022-09-12T02:17:46;100505.59;;;13.90;93.04
15529;BME280;7866;52.280;9.500;2022-09-12T02:22:51;100501.88;;;13.91;93.12
15529;BME280;7866;52.280;9.500;2022-09-12T02:27:59;100509.31;;;13.89;93.03
15529;BME280;7866;52.280;9.500;2022-09-12T02:33:05;100500.50;;;13.95;93.25
15529;BME280;7866;52.280;9.500;2022-09-12T02:38:09;100506.53;;;13.97;93.00
15529;BME280;7866;52.280;9.500;2022-09-12T02:43:13;100499.84;;;13.93;93.09
15529;BME280;7866;52.280;9.500;2022-09-12T02:48:19;100495.88;;;13.89;93.08
15529;BME280;7866;52.280;9.500;2022-09-12T02:53:22;100489.66;;;13.89;93.16
15529;BME280;7866;52.280;9.500;2022-09-12T02:58:26;100495.88;;;13.89;93.34
15529;BME280;7866;52.280;9.500;2022-09-12T03:03:43;100489.44;;;13.90;93.71
15529;BME280;7866;52.280;9.500;2022-09-12T03:09:02;100496.50;;;13.91;93.31
15529;BME280;7866;52.280;9.500;2022-09-12T03:14:21;100497.91;;;13.87;93.31
15529;BME280;7866;52.280;9.500;2022-09-12T03:19:33;100491.06;;;13.85;93.48
15529;BME280;7866;52.280;9.500;2022-09-12T03:24:44;100495.50;;;13.77;93.26
15529;BME280;7866;52.280;9.500;2022-09-12T03:29:50;100496.69;;;13.75;93.88
15529;BME280;7866;52.280;9.500;2022-09-12T03:34:54;100492.25;;;13.82;93.70
15529;BME280;7866;52.280;9.500;2022-09-12T03:39:55;100492.25;;;13.82;94.02
15529;BME280;7866;52.280;9.500;2022-09-12T03:44:57;100487.78;;;13.89;94.26
15529;BME280;7866;52.280;9.500;2022-09-12T03:50:00;100489.09;;;13.93;94.13
15529;BME280;7866;52.280;9.500;2022-09-12T03:55:02;100493.53;;;13.86;93.99
15529;BME280;7866;52.280;9.500;2022-09-12T04:00:07;100483.97;;;13.84;93.75
15529;BME280;7866;52.280;9.500;2022-09-12T04:05:10;100485.75;;;13.76;93.86
15529;BME280;7866;52.280;9.500;2022-09-12T04:10:11;100487.59;;;13.76;93.99
15529;BME280;7866;52.280;9.500;2022-09-12T04:15:13;100482.69;;;13.79;94.15
15529;BME280;7866;52.280;9.500;2022-09-12T04:20:16;100483.25;;;13.75;93.87
15529;BME280;7866;52.280;9.500;2022-09-12T04:25:18;100493.38;;;13.73;94.21
15529;BME280;7866;52.280;9.500;2022-09-12T04:30:20;100490.38;;;13.68;93.79
15529;BME280;7866;52.280;9.500;2022-09-12T04:35:22;100501.91;;;13.62;93.94
15529;BME280;7866;52.280;9.500;2022-09-12T04:40:24;100499.09;;;13.55;93.33
15529;BME280;7866;52.280;9.500;2022-09-12T04:45:26;100487.50;;;13.54;94.07
15529;BME280;7866;52.280;9.500;2022-09-12T04:50:29;100491.97;;;13.62;94.14
15529;BME280;7866;52.280;9.500;2022-09-12T04:55:33;100490.22;;;13.69;94.26
15529;BME280;7866;52.280;9.500;2022-09-12T05:00:35;100492.72;;;13.71;94.00
15529;BME280;7866;52.280;9.500;2022-09-12T05:05:38;100495.84;;;13.60;94.06
15529;BME280;7866;52.280;9.500;2022-09-12T05:10:40;100493.91;;;13.68;93.85
15529;BME280;7866;52.280;9.500;2022-09-12T05:15:42;100491.22;;;13.68;93.87
15529;BME280;7866;52.280;9.500;2022-09-12T05:20:45;100492.91;;;13.69;93.69
15529;BME280;7866;52.280;9.500;2022-09-12T05:25:47;100493.84;;;13.76;93.73
15529;BME280;7866;52.280;9.500;2022-09-12T05:30:59;100490.69;;;13.73;93.69
15529;BME280;7866;52.280;9.500;2022-09-12T05:36:03;100495.31;;;13.79;93.65
15529;BME280;7866;52.280;9.500;2022-09-12T05:41:07;100492.97;;;13.91;93.66
15529;BME280;7866;52.280;9.500;2022-09-12T05:46:11;100504.78;;;14.04;93.39
15529;BME280;7866;52.280;9.500;2022-09-12T05:51:16;100503.16;;;14.10;92.96
15529;BME280;7866;52.280;9.500;2022-09-12T05:56:21;100498.13;;;14.22;92.77
15529;BME280;7866;52.280;9.500;2022-09-12T06:01:24;100501.75;;;14.29;92.54
15529;BME280;7866;52.280;9.500;2022-09-12T06:06:29;100505.25;;;14.44;92.42
15529;BME280;7866;52.280;9.500;2022-09-12T06:11:32;100506.53;;;14.48;92.39
15529;BME280;7866;52.280;9.500;2022-09-12T06:16:35;100507.53;;;14.62;92.28
15529;BME280;7866;52.280;9.500;2022-09-12T06:21:38;100495.47;;;14.79;92.14
15529;BME280;7866;52.280;9.500;2022-09-12T06:26:40;100494.53;;;15.15;91.61
15529;BME280;7866;52.280;9.500;2022-09-12T06:31:43;100495.41;;;15.50;90.66
15529;BME280;7866;52.280;9.500;2022-09-12T06:36:47;100488.81;;;15.88;89.18
15529;BME280;7866;52.280;9.500;2022-09-12T06:41:50;100484.00;;;16.24;88.35
15529;BME280;7866;52.280;9.500;2022-09-12T06:46:52;100488.44;;;16.59;87.05
15529;BME280;7866;52.280;9.500;2022-09-12T06:51:55;100490.81;;;16.82;85.87
15529;BME280;7866;52.280;9.500;2022-09-12T06:56:56;100496.66;;;17.25;85.76
15529;BME280;7866;52.280;9.500;2022-09-12T07:01:58;100491.25;;;17.12;85.03
15529;BME280;7866;52.280;9.500;2022-09-12T07:07:02;100488.25;;;17.66;85.42
15529;BME280;7866;52.280;9.500;2022-09-12T07:12:05;100487.09;;;18.14;84.40
15529;BME280;7866;52.280;9.500;2022-09-12T07:17:07;100488.97;;;18.07;84.33
15529;BME280;7866;52.280;9.500;2022-09-12T07:22:10;100498.25;;;18.31;84.31
15529;BME280;7866;52.280;9.500;2022-09-12T07:27:12;100488.59;;;18.48;84.14
15529;BME280;7866;52.280;9.500;2022-09-12T07:32:13;100488.38;;;18.50;83.80
15529;BME280;7866;52.280;9.500;2022-09-12T07:37:16;100488.28;;;18.63;83.22
15529;BME280;7866;52.280;9.500;2022-09-12T07:42:18;100494.19;;;18.91;80.71
15529;BME280;7866;52.280;9.500;2022-09-12T07:47:19;100492.44;;;19.04;79.80
15529;BME280;7866;52.280;9.500;2022-09-12T07:52:22;100490.38;;;19.24;78.64
15529;BME280;7866;52.280;9.500;2022-09-12T07:57:24;100484.66;;;19.32;78.18
15529;BME280;7866;52.280;9.500;2022-09-12T08:02:26;100489.47;;;19.30;76.61
15529;BME280;7866;52.280;9.500;2022-09-12T08:07:29;100488.44;;;19.31;77.50
15529;BME280;7866;52.280;9.500;2022-09-12T08:12:30;100494.84;;;19.37;76.53
15529;BME280;7866;52.280;9.500;2022-09-12T08:17:33;100495.38;;;19.27;75.15
15529;BME280;7866;52.280;9.500;2022-09-12T08:22:37;100499.00;;;19.39;75.09
15529;BME280;7866;52.280;9.500;2022-09-12T08:27:41;100487.56;;;19.56;74.46
15529;BME280;7866;52.280;9.500;2022-09-12T08:32:42;100496.53;;;19.56;73.92
15529;BME280;7866;52.280;9.500;2022-09-12T08:37:45;100492.94;;;19.62;74.22
15529;BME280;7866;52.280;9.500;2022-09-12T08:42:53;100484.44;;;19.77;72.70
15529;BME280;7866;52.280;9.500;2022-09-12T08:48:01;100486.69;;;19.99;72.77
15529;BME280;7866;52.280;9.500;2022-09-12T08:53:11;100481.25;;;19.99;72.11
15529;BME280;7866;52.280;9.500;2022-09-12T08:58:15;100481.31;;;20.29;72.05
15529;BME280;7866;52.280;9.500;2022-09-12T09:03:46;100480.41;;;20.35;70.95
15529;BME280;7866;52.280;9.500;2022-09-12T09:08:56;100476.69;;;20.29;70.23
15529;BME280;7866;52.280;9.500;2022-09-12T09:14:17;100471.38;;;20.34;70.07
15529;BME280;7866;52.280;9.500;2022-09-12T09:19:44;100476.34;;;20.56;69.50
15529;BME280;7866;52.280;9.500;2022-09-12T09:24:52;100467.88;;;20.46;69.49
15529;BME280;7866;52.280;9.500;2022-09-12T09:29:55;100477.47;;;20.48;68.77
15529;BME280;7866;52.280;9.500;2022-09-12T09:34:57;100469.53;;;20.47;69.36
15529;BME280;7866;52.280;9.500;2022-09-12T09:40:07;100470.19;;;20.49;69.24
15529;BME280;7866;52.280;9.500;2022-09-12T09:45:19;100465.78;;;20.89;68.15
15529;BME280;7866;52.280;9.500;2022-09-12T09:50:21;100465.75;;;20.78;68.81
15529;BME280;7866;52.280;9.500;2022-09-12T09:55:28;100459.44;;;21.07;67.77
15529;BME280;7866;52.280;9.500;2022-09-12T10:00:33;100451.47;;;20.94;68.20
15529;BME280;7866;52.280;9.500;2022-09-12T10:05:44;100464.75;;;20.90;67.80
15529;BME280;7866;52.280;9.500;2022-09-12T10:10:54;100462.56;;;20.81;67.97
15529;BME280;7866;52.280;9.500;2022-09-12T10:15:59;100458.50;;;20.60;68.57
15529;BME280;7866;52.280;9.500;2022-09-12T10:21:12;100457.50;;;20.84;67.37
15529;BME280;7866;52.280;9.500;2022-09-12T10:26:18;100457.28;;;20.98;67.62
15529;BME280;7866;52.280;9.500;2022-09-12T10:31:26;100461.81;;;21.27;65.98
15529;BME280;7866;52.280;9.500;2022-09-12T10:36:35;100447.00;;;21.23;66.98
15529;BME280;7866;52.280;9.500;2022-09-12T10:41:39;100450.22;;;21.55;67.12
15529;BME280;7866;52.280;9.500;2022-09-12T10:46:41;100439.69;;;21.47;66.92
15529;BME280;7866;52.280;9.500;2022-09-12T10:51:43;100432.75;;;21.80;66.06
15529;BME280;7866;52.280;9.500;2022-09-12T10:56:55;100432.16;;;21.78;65.55
15529;BME280;7866;52.280;9.500;2022-09-12T11:02:12;100422.44;;;21.70;66.95
15529;BME280;7866;52.280;9.500;2022-09-12T11:07:31;100423.78;;;21.68;63.81
15529;BME280;7866;52.280;9.500;2022-09-12T11:12:41;100419.69;;;21.82;64.50
15529;BME280;7866;52.280;9.500;2022-09-12T11:17:50;100419.19;;;21.97;65.30
15529;BME280;7866;52.280;9.500;2022-09-12T11:23:21;100405.41;;;22.03;63.10
15529;BME280;7866;52.280;9.500;2022-09-12T11:28:35;100401.16;;;22.53;63.21
15529;BME280;7866;52.280;9.500;2022-09-12T11:33:42;100387.41;;;22.48;63.18
15529;BME280;7866;52.280;9.500;2022-09-12T11:38:50;100395.53;;;22.43;63.72
15529;BME280;7866;52.280;9.500;2022-09-12T11:44:00;100385.91;;;22.11;62.47
15529;BME280;7866;52.280;9.500;2022-09-12T11:49:08;100388.88;;;22.10;63.60
15529;BME280;7866;52.280;9.500;2022-09-12T11:54:20;100391.31;;;22.35;62.40
15529;BME280;7866;52.280;9.500;2022-09-12T11:59:32;100378.13;;;22.32;61.61
15529;BME280;7866;52.280;9.500;2022-09-12T12:04:40;100381.53;;;22.22;62.30
15529;BME280;7866;52.280;9.500;2022-09-12T12:09:47;100383.34;;;22.33;62.60
15529;BME280;7866;52.280;9.500;2022-09-12T12:14:53;100385.38;;;22.55;61.83
15529;BME280;7866;52.280;9.500;2022-09-12T12:19:58;100374.66;;;22.36;61.38
15529;BME280;7866;52.280;9.500;2022-09-12T12:25:22;100378.56;;;22.41;60.17
15529;BME280;7866;52.280;9.500;2022-09-12T12:31:02;100368.66;;;22.68;57.56
15529;BME280;7866;52.280;9.500;2022-09-12T12:36:07;100373.03;;;22.35;61.27
15529;BME280;7866;52.280;9.500;2022-09-12T12:41:41;100359.47;;;22.57;58.45
15529;BME280;7866;52.280;9.500;2022-09-12T12:47:08;100361.22;;;22.63;57.99
15529;BME280;7866;52.280;9.500;2022-09-12T12:52:15;100358.16;;;22.60;59.90
15529;BME280;7866;52.280;9.500;2022-09-12T12:57:26;100344.84;;;22.47;58.97
15529;BME280;7866;52.280;9.500;2022-09-12T13:02:32;100348.81;;;22.39;59.29
15529;BME280;7866;52.280;9.500;2022-09-12T13:07:37;100337.88;;;22.73;59.26
15529;BME280;7866;52.280;9.500;2022-09-12T13:12:44;100325.81;;;22.52;59.36
15529;BME280;7866;52.280;9.500;2022-09-12T13:17:50;100325.94;;;22.62;59.49
15529;BME280;7866;52.280;9.500;2022-09-12T13:22:52;100325.38;;;22.94;57.88
15529;BME280;7866;52.280;9.500;2022-09-12T13:27:59;100314.56;;;23.21;57.14
15529;BME280;7866;52.280;9.500;2022-09-12T13:33:29;100315.38;;;23.43;55.76
15529;BME280;7866;52.280;9.500;2022-09-12T13:38:36;100297.63;;;23.46;55.73
15529;BME280;7866;52.280;9.500;2022-09-12T13:43:44;100283.63;;;23.64;54.10
15529;BME280;7866;52.280;9.500;2022-09-12T13:48:49;100281.66;;;23.81;54.13
15529;BME280;7866;52.280;9.500;2022-09-12T13:53:52;100271.81;;;23.80;52.96
15529;BME280;7866;52.280;9.500;2022-09-12T13:58:58;100273.88;;;23.68;53.17
15529;BME280;7866;52.280;9.500;2022-09-12T14:04:13;100262.47;;;23.76;50.11
15529;BME280;7866;52.280;9.500;2022-09-12T14:09:36;100253.16;;;23.77;52.59
15529;BME280;7866;52.280;9.500;2022-09-12T14:14:39;100253.94;;;23.73;52.53
15529;BME280;7866;52.280;9.500;2022-09-12T14:19:44;100245.03;;;23.82;52.34
15529;BME280;7866;52.280;9.500;2022-09-12T14:24:47;100241.00;;;24.22;52.07
15529;BME280;7866;52.280;9.500;2022-09-12T14:29:50;100239.81;;;24.13;51.81
15529;BME280;7866;52.280;9.500;2022-09-12T14:35:17;100225.09;;;24.19;51.06
15529;BME280;7866;52.280;9.500;2022-09-12T14:40:21;100229.13;;;24.12;52.85
15529;BME280;7866;52.280;9.500;2022-09-12T14:45:26;100220.06;;;24.06;52.08
15529;BME280;7866;52.280;9.500;2022-09-12T14:50:34;100218.41;;;24.05;52.00
15529;BME280;7866;52.280;9.500;2022-09-12T14:55:41;100218.94;;;24.02;50.33
15529;BME280;7866;52.280;9.500;2022-09-12T15:00:56;100211.63;;;23.80;47.94
15529;BME280;7866;52.280;9.500;2022-09-12T15:06:01;100203.78;;;23.62;51.97
15529;BME280;7866;52.280;9.500;2022-09-12T15:11:05;100208.75;;;23.38;53.36
15529;BME280;7866;52.280;9.500;2022-09-12T15:16:09;100197.31;;;22.97;52.97
15529;BME280;7866;52.280;9.500;2022-09-12T15:21:16;100204.47;;;22.81;54.29
15529;BME280;7866;52.280;9.500;2022-09-12T15:26:20;100195.00;;;22.89;53.94
15529;BME280;7866;52.280;9.500;2022-09-12T15:31:24;100190.41;;;23.11;53.67
15529;BME280;7866;52.280;9.500;2022-09-12T15:36:28;100177.25;;;23.08;54.38
15529;BME280;7866;52.280;9.500;2022-09-12T15:41:31;100175.78;;;23.01;56.08
15529;BME280;7866;52.280;9.500;2022-09-12T15:46:33;100171.94;;;22.58;57.33
15529;BME280;7866;52.280;9.500;2022-09-12T15:51:36;100164.16;;;22.11;58.15
15529;BME280;7866;52.280;9.500;2022-09-12T15:56:38;100163.72;;;22.36;57.09
15529;BME280;7866;52.280;9.500;2022-09-12T16:01:40;100150.41;;;22.40;57.10
15529;BME280;7866;52.280;9.500;2022-09-12T16:06:43;100165.41;;;22.20;58.92
15529;BME280;7866;52.280;9.500;2022-09-12T16:11:45;100156.88;;;22.00;58.91
15529;BME280;7866;52.280;9.500;2022-09-12T16:16:51;100155.06;;;21.72;61.48
15529;BME280;7866;52.280;9.500;2022-09-12T16:21:54;100147.56;;;21.33;63.85
15529;BME280;7866;52.280;9.500;2022-09-12T16:26:56;100144.84;;;21.05;65.05
15529;BME280;7866;52.280;9.500;2022-09-12T16:31:58;100129.53;;;20.87;65.85
15529;BME280;7866;52.280;9.500;2022-09-12T16:37:01;100131.13;;;20.71;66.41
15529;BME280;7866;52.280;9.500;2022-09-12T16:42:02;100130.53;;;20.57;67.10
15529;BME280;7866;52.280;9.500;2022-09-12T16:47:04;100125.09;;;20.46;67.76
15529;BME280;7866;52.280;9.500;2022-09-12T16:52:08;100124.75;;;20.30;69.28
15529;BME280;7866;52.280;9.500;2022-09-12T16:57:10;100110.84;;;20.15;69.04
15529;BME280;7866;52.280;9.500;2022-09-12T17:02:12;100104.34;;;20.04;69.46
15529;BME280;7866;52.280;9.500;2022-09-12T17:07:16;100102.44;;;19.81;70.05
15529;BME280;7866;52.280;9.500;2022-09-12T17:12:17;100106.94;;;19.64;70.00
15529;BME280;7866;52.280;9.500;2022-09-12T17:17:19;100118.56;;;19.53;70.20
15529;BME280;7866;52.280;9.500;2022-09-12T17:22:22;100115.69;;;19.36;70.58
15529;BME280;7866;52.280;9.500;2022-09-12T17:27:24;100098.63;;;19.17;70.66
15529;BME280;7866;52.280;9.500;2022-09-12T17:32:25;100100.81;;;18.97;71.41
15529;BME280;7866;52.280;9.500;2022-09-12T17:37:28;100092.13;;;18.76;71.99
15529;BME280;7866;52.280;9.500;2022-09-12T17:42:30;100085.78;;;18.64;72.35
15529;BME280;7866;52.280;9.500;2022-09-12T17:47:32;100090.75;;;18.49;72.41
15529;BME280;7866;52.280;9.500;2022-09-12T17:52:35;100085.84;;;18.39;72.66
15529;BME280;7866;52.280;9.500;2022-09-12T17:57:36;100091.44;;;18.26;72.79
15529;BME280;7866;52.280;9.500;2022-09-12T18:02:38;100083.16;;;18.20;73.25
15529;BME280;7866;52.280;9.500;2022-09-12T18:07:41;100084.88;;;18.15;73.59
15529;BME280;7866;52.280;9.500;2022-09-12T18:12:43;100074.84;;;17.97;73.34
15529;BME280;7866;52.280;9.500;2022-09-12T18:17:46;100083.19;;;17.77;73.09
15529;BME280;7866;52.280;9.500;2022-09-12T18:22:49;100088.59;;;17.77;73.13
15529;BME280;7866;52.280;9.500;2022-09-12T18:27:51;100083.19;;;17.77;72.99
15529;BME280;7866;52.280;9.500;2022-09-12T18:32:52;100071.16;;;17.66;73.03
15529;BME280;7866;52.280;9.500;2022-09-12T18:37:55;100070.44;;;17.53;72.98
15529;BME280;7866;52.280;9.500;2022-09-12T18:42:57;100079.44;;;17.46;73.13
15529;BME280;7866;52.280;9.500;2022-09-12T18:47:59;100066.41;;;17.37;73.14
15529;BME280;7866;52.280;9.500;2022-09-12T18:53:02;100065.19;;;17.33;73.46
15529;BME280;7866;52.280;9.500;2022-09-12T18:58:04;100059.66;;;17.21;73.50
15529;BME280;7866;52.280;9.500;2022-09-12T19:03:06;100055.34;;;17.13;74.06
15529;BME280;7866;52.280;9.500;2022-09-12T19:08:09;100056.59;;;17.11;74.21
15529;BME280;7866;52.280;9.500;2022-09-12T19:13:10;100052.47;;;17.08;73.92
15529;BME280;7866;52.280;9.500;2022-09-12T19:18:12;100049.63;;;16.96;74.47
15529;BME280;7866;52.280;9.500;2022-09-12T19:23:15;100047.94;;;16.95;74.16
15529;BME280;7866;52.280;9.500;2022-09-12T19:28:17;100030.91;;;16.95;74.28
15529;BME280;7866;52.280;9.500;2022-09-12T19:33:19;100026.31;;;16.95;73.81
15529;BME280;7866;52.280;9.500;2022-09-12T19:38:22;100026.78;;;16.92;74.11
15529;BME280;7866;52.280;9.500;2022-09-12T19:43:23;100019.47;;;16.93;74.11
15529;BME280;7866;52.280;9.500;2022-09-12T19:48:26;100015.16;;;16.85;73.86
15529;BME280;7866;52.280;9.500;2022-09-12T19:53:29;100015.03;;;16.73;74.15
15529;BME280;7866;52.280;9.500;2022-09-12T19:58:35;100000.00;;;16.71;75.14
15529;BME280;7866;52.280;9.500;2022-09-12T20:03:38;100004.19;;;16.73;75.59
15529;BME280;7866;52.280;9.500;2022-09-12T20:08:41;99984.63;;;16.71;75.35
15529;BME280;7866;52.280;9.500;2022-09-12T20:13:44;99978.94;;;16.86;74.94
15529;BME280;7866;52.280;9.500;2022-09-12T20:18:47;99977.56;;;17.02;73.48
15529;BME280;7866;52.280;9.500;2022-09-12T20:23:50;99961.72;;;17.31;71.53
15529;BME280;7866;52.280;9.500;2022-09-12T20:28:52;99966.78;;;17.45;70.54
15529;BME280;7866;52.280;9.500;2022-09-12T20:33:53;99961.59;;;17.62;69.10
15529;BME280;7866;52.280;9.500;2022-09-12T20:38:59;99964.22;;;17.94;68.05
15529;BME280;7866;52.280;9.500;2022-09-12T20:44:01;99965.16;;;18.18;66.47
15529;BME280;7866;52.280;9.500;2022-09-12T20:49:03;99950.53;;;18.37;65.62
15529;BME280;7866;52.280;9.500;2022-09-12T20:54:06;99948.53;;;18.14;67.24
15529;BME280;7866;52.280;9.500;2022-09-12T20:59:10;99933.75;;;18.29;66.68
15529;BME280;7866;52.280;9.500;2022-09-12T21:04:12;99923.94;;;18.58;65.00
15529;BME280;7866;52.280;9.500;2022-09-12T21:09:15;99916.25;;;18.85;64.14
15529;BME280;7866;52.280;9.500;2022-09-12T21:14:17;99910.72;;;18.91;63.83
15529;BME280;7866;52.280;9.500;2022-09-12T21:19:19;99891.84;;;18.97;63.67
15529;BME280;7866;52.280;9.500;2022-09-12T21:24:22;99890.03;;;18.79;64.20
15529;BME280;7866;52.280;9.500;2022-09-12T21:29:23;99888.28;;;18.73;64.61
15529;BME280;7866;52.280;9.500;2022-09-12T21:34:25;99881.44;;;18.82;64.08
15529;BME280;7866;52.280;9.500;2022-09-12T21:39:28;99878.25;;;18.73;64.55
15529;BME280;7866;52.280;9.500;2022-09-12T21:44:30;99866.69;;;18.78;64.28
15529;BME280;7866;52.280;9.500;2022-09-12T21:49:32;99863.63;;;18.86;63.80
15529;BME280;7866;52.280;9.500;2022-09-12T21:54:35;99866.59;;;18.84;63.92
15529;BME280;7866;52.280;9.500;2022-09-12T21:59:36;99864.09;;;18.83;64.15
15529;BME280;7866;52.280;9.500;2022-09-12T22:04:38;99856.91;;;18.77;64.13
15529;BME280;7866;52.280;9.500;2022-09-12T22:09:41;99864.69;;;18.73;64.27
15529;BME280;7866;52.280;9.500;2022-09-12T22:14:43;99864.69;;;18.85;63.95
15529;BME280;7866;52.280;9.500;2022-09-12T22:19:45;99863.47;;;18.69;64.56
15529;BME280;7866;52.280;9.500;2022-09-12T22:24:48;99840.72;;;18.70;64.61
15529;BME280;7866;52.280;9.500;2022-09-12T22:29:50;99844.28;;;18.82;64.05
15529;BME280;7866;52.280;9.500;2022-09-12T22:34:52;99846.16;;;18.82;63.91
15529;BME280;7866;52.280;9.500;2022-09-12T22:39:55;99838.38;;;18.85;63.92
15529;BME280;7866;52.280;9.500;2022-09-12T22:44:57;99847.72;;;18.89;63.74
15529;BME280;7866;52.280;9.500;2022-09-12T22:49:58;99838.03;;;18.82;64.31
15529;BME280;7866;52.280;9.500;2022-09-12T22:55:02;99833.31;;;18.77;64.51
15529;BME280;7866;52.280;9.500;2022-09-12T23:00:04;99820.16;;;18.62;65.09
15529;BME280;7866;52.280;9.500;2022-09-12T23:05:09;99807.16;;;18.29;66.20
15529;BME280;7866;52.280;9.500;2022-09-12T23:10:12;99810.25;;;18.44;65.68
15529;BME280;7866;52.280;9.500;2022-09-12T23:15:13;99806.13;;;18.42;65.72
15529;BME280;7866;52.280;9.500;2022-09-12T23:20:15;99802.94;;;18.45;65.51
15529;BME280;7866;52.280;9.500;2022-09-12T23:25:19;99786.53;;;18.16;66.76
15529;BME280;7866;52.280;9.500;2022-09-12T23:30:22;99786.41;;;18.11;66.77
15529;BME280;7866;52.280;9.500;2022-09-12T23:35:23;99773.34;;;18.20;66.65
15529;BME280;7866;52.280;9.500;2022-09-12T23:40:26;99792.88;;;18.22;66.56
15529;BME280;7866;52.280;9.500;2022-09-12T23:45:28;99802.91;;;18.21;66.44
15529;BME280;7866;52.280;9.500;2022-09-12T23:50:30;99777.47;;;18.46;65.62
15529;BME280;7866;52.280;9.500;2022-09-12T23:55:32;99780.31;;;18.39;65.88
